Time;durP1;ratioP1;P1;durP2;ratioP2;P2;SDS_P1;SDS_P2;PMS_P1;PMS_P2;Temp;Humidity;BMP_temperature;BMP_pressure;BME280_temperature;BME280_humidity;BME280_pressure;Samples;Min_cycle;Max_cycle;Signal;HPM_P1;HPM_P2
2023/01/28 04:01:25;;;;;;;4.80;3.70;;;2.90;81.60;;;;;;5646463;23;21003;-68
2023/01/28 04:03:52;;;;;;;3.77;3.37;;;2.90;81.40;;;;;;4936562;29;20456;-68
2023/01/28 04:06:18;;;;;;;5.93;4.87;;;2.90;81.90;;;;;;4936996;29;20511;-68
2023/01/28 04:08:53;;;;;;;4.53;4.00;;;2.90;81.80;;;;;;4936939;29;20539;-69
2023/01/28 04:11:20;;;;;;;4.70;4.20;;;2.90;81.80;;;;;;4937949;29;20963;-68
2023/01/28 04:13:51;;;;;;;5.23;4.70;;;2.70;82.10;;;;;;4937607;29;20459;-66
2023/01/28 04:16:19;;;;;;;5.20;4.70;;;2.60;83.10;;;;;;4936569;29;20847;-68
2023/01/28 04:18:47;;;;;;;5.07;4.57;;;2.70;82.90;;;;;;4936815;29;20448;-68
2023/01/28 04:21:14;;;;;;;5.03;4.57;;;2.60;82.90;;;;;;4936326;29;20844;-68
2023/01/28 04:23:40;;;;;;;4.40;4.00;;;2.60;83.00;;;;;;4936415;29;21079;-68
2023/01/28 04:26:07;;;;;;;5.43;4.93;;;2.60;83.50;;;;;;4936709;29;20452;-68
2023/01/28 04:28:34;;;;;;;4.97;4.50;;;2.60;83.50;;;;;;4936601;29;20498;-68
2023/01/28 04:31:01;;;;;;;5.07;4.57;;;2.60;83.50;;;;;;4936492;29;20535;-68
2023/01/28 04:33:27;;;;;;;5.30;4.80;;;2.70;83.60;;;;;;4936546;29;20533;-68
2023/01/28 04:35:55;;;;;;;4.57;3.97;;;2.70;83.20;;;;;;4936522;29;20877;-68
2023/01/28 04:38:22;;;;;;;4.40;4.00;;;2.80;83.50;;;;;;4937098;29;20531;-67
2023/01/28 04:40:52;;;;;;;5.37;4.70;;;2.80;83.00;;;;;;4936497;29;20468;-67
2023/01/28 04:43:19;;;;;;;4.50;4.00;;;2.70;82.70;;;;;;4936450;29;20503;-68
2023/01/28 04:45:46;;;;;;;4.67;3.80;;;2.60;83.50;;;;;;4936328;29;20456;-68
2023/01/28 04:48:13;;;;;;;4.60;4.20;;;2.70;83.20;;;;;;4936094;29;21016;-68
2023/01/28 04:50:40;;;;;;;4.90;4.40;;;2.70;83.10;;;;;;4936295;29;20495;-68
2023/01/28 04:53:08;;;;;;;4.97;4.47;;;2.70;83.20;;;;;;4936220;29;20504;-69
2023/01/28 04:55:35;;;;;;;5.00;4.50;;;2.70;83.20;;;;;;4936237;29;20455;-68
2023/01/28 04:58:02;;;;;;;4.10;3.70;;;2.80;83.00;;;;;;4936297;29;20448;-68
2023/01/28 05:00:29;;;;;;;4.60;4.20;;;2.60;83.20;;;;;;4936141;29;20443;-68
2023/01/28 05:02:57;;;;;;;4.43;3.87;;;2.60;83.80;;;;;;4935738;29;20459;-68
2023/01/28 05:05:23;;;;;;;5.40;4.90;;;2.50;83.80;;;;;;4935893;29;20454;-67
2023/01/28 05:07:51;;;;;;;5.10;4.70;;;2.50;83.90;;;;;;4936173;29;20499;-68
2023/01/28 05:10:20;;;;;;;4.80;4.20;;;2.50;84.20;;;;;;4936240;29;20484;-68
2023/01/28 05:12:48;;;;;;;3.80;3.43;;;2.50;84.20;;;;;;4936406;29;20455;-68
2023/01/28 05:15:15;;;;;;;4.43;4.00;;;2.30;84.50;;;;;;4942439;29;20455;-68
2023/01/28 05:17:42;;;;;;;5.53;4.97;;;2.30;85.30;;;;;;4942161;29;20452;-68
2023/01/28 05:20:10;;;;;;;5.30;4.73;;;2.40;85.00;;;;;;4942086;29;20948;-68
2023/01/28 05:22:37;;;;;;;5.67;5.13;;;2.40;84.90;;;;;;4942446;29;20475;-67
2023/01/28 05:25:04;;;;;;;4.50;4.10;;;2.50;84.50;;;;;;4942581;29;20543;-68
2023/01/28 05:27:33;;;;;;;5.30;4.80;;;2.50;84.50;;;;;;4942954;29;20534;-68
2023/01/28 05:30:00;;;;;;;5.53;5.03;;;2.60;84.60;;;;;;4942377;29;20506;-68
2023/01/28 05:32:26;;;;;;;5.10;4.60;;;2.60;84.50;;;;;;4942156;29;20527;-68
2023/01/28 05:34:53;;;;;;;5.80;5.20;;;2.70;84.30;;;;;;4942235;29;20459;-68
2023/01/28 05:37:20;;;;;;;5.80;5.30;;;2.90;83.70;;;;;;4942283;29;20452;-68
2023/01/28 05:39:46;;;;;;;5.63;5.13;;;2.80;83.40;;;;;;4942289;29;20452;-68
2023/01/28 05:42:14;;;;;;;5.00;4.50;;;2.90;83.60;;;;;;4942302;29;20471;-68
2023/01/28 05:44:42;;;;;;;6.00;5.50;;;2.90;83.10;;;;;;4942316;29;20452;-68
2023/01/28 05:47:09;;;;;;;4.93;4.40;;;2.90;83.50;;;;;;4942266;29;20448;-68
2023/01/28 05:49:35;;;;;;;4.83;4.43;;;2.90;83.10;;;;;;4942139;29;20874;-69
2023/01/28 05:52:02;;;;;;;6.10;5.20;;;2.80;83.50;;;;;;4941921;29;20994;-68
2023/01/28 05:54:29;;;;;;;5.73;5.13;;;2.90;83.40;;;;;;4941989;29;20482;-68
2023/01/28 05:56:55;;;;;;;5.80;4.57;;;2.90;83.10;;;;;;4942095;29;20627;-68
2023/01/28 05:59:22;;;;;;;5.00;4.60;;;3.00;82.90;;;;;;4942188;29;20499;-67
2023/01/28 06:01:50;;;;;;;6.07;4.80;;;3.00;83.10;;;;;;4942202;29;20519;-68
2023/01/28 06:04:17;;;;;;;5.00;4.50;;;3.00;83.10;;;;;;4942136;29;20444;-68
2023/01/28 06:06:44;;;;;;;5.10;4.60;;;3.00;83.10;;;;;;4942247;29;20458;-69
2023/01/28 06:09:11;;;;;;;4.60;4.20;;;3.00;82.80;;;;;;4942103;29;20543;-67
2023/01/28 06:11:37;;;;;;;4.33;3.90;;;2.90;83.10;;;;;;4942019;29;20527;-68
2023/01/28 06:14:04;;;;;;;5.00;4.50;;;2.90;83.40;;;;;;4942068;29;20448;-67
2023/01/28 06:16:31;;;;;;;5.47;4.97;;;2.90;83.40;;;;;;4942107;29;20523;-69
2023/01/28 06:19:05;;;;;;;5.97;5.40;;;2.80;83.50;;;;;;4942465;29;20542;-68
2023/01/28 06:21:31;;;;;;;5.30;4.67;;;2.60;84.30;;;;;;4941860;29;20472;-67
2023/01/28 06:23:58;;;;;;;4.50;4.10;;;2.80;83.90;;;;;;4941929;29;20501;-69
2023/01/28 06:26:25;;;;;;;5.00;4.50;;;2.90;83.60;;;;;;4938161;29;20503;-68
2023/01/28 06:28:51;;;;;;;5.83;5.33;;;2.90;83.40;;;;;;4938757;29;20447;-68
2023/01/28 06:31:18;;;;;;;5.93;4.83;;;3.00;83.30;;;;;;4946234;29;20530;-69
2023/01/28 06:33:45;;;;;;;5.37;4.87;;;3.00;83.10;;;;;;4946197;29;20452;-68
2023/01/28 06:36:13;;;;;;;5.37;4.87;;;3.10;82.90;;;;;;4939729;29;20448;-68
2023/01/28 06:38:39;;;;;;;5.33;4.80;;;3.20;82.60;;;;;;4939370;29;20452;-68
2023/01/28 06:41:06;;;;;;;6.63;4.77;;;3.20;82.50;;;;;;4940670;29;21092;-69
2023/01/28 06:43:33;;;;;;;4.90;4.50;;;3.20;82.80;;;;;;4941260;29;20507;-69
2023/01/28 06:46:00;;;;;;;5.33;4.83;;;3.20;82.60;;;;;;4940010;29;20494;-69
2023/01/28 06:48:27;;;;;;;5.57;3.90;;;3.30;82.60;;;;;;4939303;29;20515;-68
2023/01/28 06:50:54;;;;;;;4.23;3.83;;;3.30;82.30;;;;;;4938722;29;20496;-68
2023/01/28 06:53:22;;;;;;;4.77;4.17;;;3.30;82.20;;;;;;4938715;29;20499;-69
2023/01/28 06:55:49;;;;;;;5.27;4.63;;;3.20;82.30;;;;;;4938691;29;20452;-68
2023/01/28 06:58:16;;;;;;;5.63;4.77;;;3.20;82.40;;;;;;4938111;29;20448;-68
2023/01/28 07:00:43;;;;;;;4.93;4.43;;;3.10;82.50;;;;;;4938406;29;20535;-69
2023/01/28 07:03:09;;;;;;;5.50;4.57;;;3.20;82.60;;;;;;4938306;29;20853;-69
2023/01/28 07:05:36;;;;;;;5.17;4.67;;;3.20;82.50;;;;;;4938485;29;20452;-68
2023/01/28 07:08:03;;;;;;;5.33;4.77;;;3.30;82.40;;;;;;4938113;29;20537;-68
2023/01/28 07:10:31;;;;;;;6.00;5.40;;;3.30;82.10;;;;;;4938260;29;20483;-68
2023/01/28 07:12:57;;;;;;;5.87;5.27;;;3.30;82.00;;;;;;4937893;29;20901;-68
2023/01/28 07:15:24;;;;;;;6.43;5.83;;;3.30;82.20;;;;;;4938082;29;20452;-68
2023/01/28 07:17:51;;;;;;;5.37;4.87;;;3.40;81.80;;;;;;4938304;29;20449;-68
2023/01/28 07:20:17;;;;;;;5.53;5.03;;;3.50;81.60;;;;;;4937559;29;20456;-68
2023/01/28 07:22:45;;;;;;;5.87;5.27;;;3.50;81.20;;;;;;4937965;29;20472;-67
2023/01/28 07:25:12;;;;;;;5.90;5.40;;;3.50;81.50;;;;;;4937800;29;20507;-67
2023/01/28 07:27:46;;;;;;;5.17;4.70;;;3.60;81.40;;;;;;4937981;29;20448;-69
2023/01/28 07:30:14;;;;;;;5.27;4.70;;;3.60;81.10;;;;;;4937629;29;20473;-68
2023/01/28 07:32:40;;;;;;;5.30;4.80;;;3.40;81.60;;;;;;4937508;29;20468;-68
2023/01/28 07:35:08;;;;;;;5.27;4.77;;;3.50;81.40;;;;;;4937557;29;20447;-69
2023/01/28 07:37:35;;;;;;;5.30;4.67;;;3.50;81.30;;;;;;4937243;29;20853;-68
2023/01/28 07:40:01;;;;;;;5.43;4.90;;;3.60;81.30;;;;;;4937492;29;20794;-69
2023/01/28 07:42:28;;;;;;;4.73;4.23;;;3.60;81.10;;;;;;4937501;29;20471;-67
2023/01/28 07:44:56;;;;;;;5.70;5.20;;;3.70;81.00;;;;;;4937517;29;20456;-68
2023/01/28 07:47:23;;;;;;;5.67;5.10;;;3.70;81.10;;;;;;4937531;29;20500;-68
2023/01/28 07:49:50;;;;;;;4.57;4.17;;;3.60;81.10;;;;;;4937504;29;20517;-68
2023/01/28 07:52:16;;;;;;;5.30;4.80;;;3.60;81.30;;;;;;4937555;29;20508;-68
2023/01/28 07:54:43;;;;;;;5.77;5.17;;;3.70;81.20;;;;;;4937257;29;20452;-67
2023/01/28 07:57:10;;;;;;;5.90;5.37;;;3.70;81.10;;;;;;4937798;29;20945;-67
2023/01/28 07:59:36;;;;;;;6.17;5.57;;;3.70;81.00;;;;;;4937220;29;20451;-67
2023/01/28 08:02:04;;;;;;;6.07;5.47;;;3.60;81.20;;;;;;4936948;29;20917;-68
2023/01/28 08:04:31;;;;;;;5.57;5.07;;;3.70;81.20;;;;;;4937349;29;20499;-69
2023/01/28 08:06:58;;;;;;;5.70;5.10;;;3.70;81.10;;;;;;4937080;29;20513;-68
2023/01/28 08:09:24;;;;;;;6.27;5.67;;;3.70;80.90;;;;;;4936930;29;20456;-68
2023/01/28 08:11:51;;;;;;;5.93;5.33;;;3.70;81.30;;;;;;4936911;29;20480;-68
2023/01/28 08:14:18;;;;;;;5.50;5.00;;;3.60;81.30;;;;;;4936852;29;20448;-68
2023/01/28 08:16:44;;;;;;;4.87;4.40;;;3.70;81.40;;;;;;4936793;29;20460;-68
2023/01/28 08:19:12;;;;;;;6.00;5.40;;;3.60;81.50;;;;;;4936738;29;20507;-67
2023/01/28 08:21:39;;;;;;;5.17;4.67;;;3.60;81.40;;;;;;4936671;29;20834;-68
2023/01/28 08:24:06;;;;;;;6.20;5.60;;;3.40;81.60;;;;;;4936560;29;20949;-68
2023/01/28 08:26:33;;;;;;;6.33;5.73;;;3.30;82.60;;;;;;4937102;29;20456;-69
2023/01/28 08:28:59;;;;;;;5.60;5.10;;;3.50;82.60;;;;;;4937281;29;20456;-68
2023/01/28 08:31:27;;;;;;;6.30;5.73;;;3.50;82.50;;;;;;4936967;29;20544;-68
2023/01/28 08:33:54;;;;;;;6.37;5.47;;;3.50;82.50;;;;;;4937063;29;20804;-67
2023/01/28 08:36:22;;;;;;;5.40;4.90;;;3.50;81.90;;;;;;4936737;29;20499;-67
2023/01/28 08:38:53;;;;;;;5.80;5.30;;;3.30;82.20;;;;;;4936614;29;21016;-67
2023/01/28 08:41:20;;;;;;;6.37;5.77;;;3.20;82.20;;;;;;4936477;29;20474;-68
2023/01/28 08:43:47;;;;;;;5.90;5.30;;;3.10;83.30;;;;;;4936547;29;20523;-67
2023/01/28 08:46:14;;;;;;;6.30;5.70;;;3.20;83.00;;;;;;4936900;29;20452;-68
2023/01/28 08:48:40;;;;;;;6.27;5.67;;;3.30;82.80;;;;;;4935996;29;21009;-67
2023/01/28 08:51:07;;;;;;;9.80;7.87;;;3.20;82.90;;;;;;4937419;29;20547;-68
2023/01/28 08:53:35;;;;;;;6.73;6.13;;;3.20;83.10;;;;;;4937405;29;20546;-67
2023/01/28 08:56:02;;;;;;;6.60;5.93;;;3.30;83.10;;;;;;4937585;29;20510;-68
2023/01/28 08:58:28;;;;;;;6.07;5.53;;;3.40;82.70;;;;;;4936877;29;20465;-67
2023/01/28 09:00:55;;;;;;;5.63;5.03;;;3.40;82.20;;;;;;4937184;29;20483;-68
2023/01/28 09:03:22;;;;;;;6.37;5.77;;;3.50;82.60;;;;;;4937131;29;20441;-67
2023/01/28 09:05:49;;;;;;;6.03;5.53;;;3.40;82.90;;;;;;4936751;29;20456;-67
2023/01/28 09:08:16;;;;;;;5.90;5.30;;;3.50;82.50;;;;;;4936995;29;20813;-67
2023/01/28 09:10:44;;;;;;;5.90;5.30;;;3.50;82.10;;;;;;4938272;29;20495;-68
2023/01/28 09:13:13;;;;;;;6.63;6.03;;;3.50;82.10;;;;;;4936971;29;20884;-67
2023/01/28 09:15:40;;;;;;;6.37;5.63;;;3.50;81.40;;;;;;4936300;29;20456;-67
2023/01/28 09:18:07;;;;;;;6.20;5.60;;;3.30;81.50;;;;;;4936281;29;20447;-68
2023/01/28 09:20:33;;;;;;;5.80;5.30;;;3.10;83.20;;;;;;4936337;29;20456;-67
2023/01/28 09:23:01;;;;;;;6.07;5.57;;;3.10;82.60;;;;;;4936337;29;20487;-67
2023/01/28 09:25:27;;;;;;;6.40;5.80;;;3.20;83.20;;;;;;4936400;29;20499;-67
2023/01/28 09:27:56;;;;;;;7.60;6.90;;;3.40;82.40;;;;;;4936731;29;20448;-66
2023/01/28 09:30:22;;;;;;;7.03;6.37;;;3.20;82.40;;;;;;4936385;29;20545;-68
2023/01/28 09:32:50;;;;;;;7.40;6.60;;;3.20;82.90;;;;;;4936602;29;20467;-69
2023/01/28 09:35:18;;;;;;;7.53;6.87;;;3.40;82.80;;;;;;4936660;29;20539;-68
2023/01/28 09:37:45;;;;;;;6.90;6.20;;;3.50;82.10;;;;;;4936646;29;20527;-67
2023/01/28 09:40:16;;;;;;;6.53;5.77;;;3.50;81.60;;;;;;4936620;29;20457;-67
2023/01/28 09:42:58;;;;;;;6.17;5.67;;;3.30;82.00;;;;;;4936352;29;20981;-67
2023/01/28 09:45:36;;;;;;;6.50;5.90;;;3.10;82.60;;;;;;4936275;29;20440;-68
2023/01/28 09:48:05;;;;;;;7.13;6.00;;;3.20;83.20;;;;;;4935876;29;20483;-67
2023/01/28 09:50:34;;;;;;;8.03;7.00;;;3.30;82.60;;;;;;4935607;29;20566;-67
2023/01/28 09:53:05;;;;;;;8.57;5.97;;;3.30;83.70;;;;;;4935977;29;20451;-66
2023/01/28 09:55:36;;;;;;;5.87;5.03;;;3.40;84.80;;;;;;4936012;29;20933;-67
2023/01/28 09:58:07;;;;;;;7.57;6.37;;;3.60;82.70;;;;;;4936374;29;20455;-67
2023/01/28 10:00:43;;;;;;;7.73;6.80;;;3.40;81.20;;;;;;4936975;29;20516;-67
2023/01/28 10:03:30;;;;;;;6.20;5.60;;;3.30;81.80;;;;;;4939607;29;20905;-66
2023/01/28 10:06:07;;;;;;;5.87;5.27;;;3.30;82.10;;;;;;4939942;29;20444;-67
2023/01/28 10:08:52;;;;;;;10.60;6.00;;;3.40;82.10;;;;;;4939443;29;20431;-66
2023/01/28 10:11:26;;;;;;;6.10;5.50;;;3.70;81.40;;;;;;4939476;29;20487;-67
2023/01/28 10:14:00;;;;;;;5.80;5.17;;;3.70;81.00;;;;;;4939834;29;20440;-66
2023/01/28 10:16:35;;;;;;;5.70;5.10;;;3.70;80.70;;;;;;4940317;29;20431;-66
2023/01/28 10:19:07;;;;;;;6.63;5.93;;;3.70;80.60;;;;;;4939661;29;20867;-66
2023/01/28 10:21:38;;;;;;;6.20;5.60;;;3.60;80.40;;;;;;4939634;29;20523;-66
2023/01/28 10:24:10;;;;;;;7.73;7.03;;;3.40;80.80;;;;;;4939442;29;20436;-66
2023/01/28 10:26:40;;;;;;;6.63;6.03;;;3.30;81.60;;;;;;4939463;29;20476;-66
2023/01/28 10:29:13;;;;;;;6.87;6.17;;;3.20;81.40;;;;;;4939367;29;20452;-66
2023/01/28 10:31:47;;;;;;;7.97;7.27;;;3.00;82.30;;;;;;4939906;29;20565;-66
2023/01/28 10:34:13;;;;;;;8.73;6.30;;;3.00;82.80;;;;;;4939360;29;20436;-66
2023/01/28 10:36:40;;;;;;;7.30;6.60;;;3.00;82.50;;;;;;4939504;29;20451;-66
2023/01/28 10:39:07;;;;;;;6.63;6.03;;;3.00;82.70;;;;;;4940630;29;20462;-66
2023/01/28 10:41:34;;;;;;;6.23;5.67;;;3.10;82.50;;;;;;4940508;29;20531;-67
2023/01/28 10:44:01;;;;;;;7.20;6.60;;;3.10;82.50;;;;;;4940453;29;20790;-66
2023/01/28 10:46:32;;;;;;;6.43;5.83;;;3.20;82.30;;;;;;4940005;29;20452;-67
2023/01/28 10:49:06;;;;;;;7.23;6.40;;;3.40;82.00;;;;;;4940306;29;20440;-67
2023/01/28 10:51:35;;;;;;;7.37;6.67;;;3.50;81.60;;;;;;4942861;29;20487;-65
2023/01/28 10:54:02;;;;;;;7.67;6.97;;;3.40;81.00;;;;;;4942826;29;20973;-66
2023/01/28 10:56:31;;;;;;;8.13;7.33;;;3.30;82.20;;;;;;4938764;29;20456;-66
2023/01/28 10:59:01;;;;;;;7.03;6.33;;;3.30;81.70;;;;;;4938325;29;20957;-66
2023/01/28 11:01:43;;;;;;;8.10;7.30;;;3.30;82.20;;;;;;4938221;29;20472;-68
2023/01/28 11:04:19;;;;;;;6.10;5.50;;;3.20;82.10;;;;;;4938503;29;20473;-66
2023/01/28 11:06:54;;;;;;;7.87;6.27;;;3.00;82.30;;;;;;4938300;29;20475;-66
2023/01/28 11:09:22;;;;;;;7.47;6.67;;;3.20;82.90;;;;;;4938296;29;20483;-66
2023/01/28 11:11:49;;;;;;;8.30;7.30;;;3.40;82.20;;;;;;4937564;29;20492;-66
2023/01/28 11:14:21;;;;;;;7.60;6.90;;;3.40;81.90;;;;;;4938252;29;20451;-67
2023/01/28 11:16:48;;;;;;;7.00;6.30;;;3.50;82.00;;;;;;4938459;29;20440;-66
2023/01/28 11:19:19;;;;;;;6.70;6.10;;;3.70;81.20;;;;;;4938347;29;20818;-66
2023/01/28 11:21:49;;;;;;;8.30;7.50;;;3.70;81.10;;;;;;4938536;29;20998;-65
2023/01/28 11:24:21;;;;;;;9.83;7.63;;;3.80;81.30;;;;;;4938603;29;20443;-66
2023/01/28 11:26:50;;;;;;;7.97;6.50;;;3.70;80.70;;;;;;4938452;29;20853;-66
2023/01/28 11:29:28;;;;;;;8.30;7.60;;;3.50;81.90;;;;;;4938430;29;20437;-67
2023/01/28 11:31:55;;;;;;;9.40;8.50;;;3.50;82.00;;;;;;4938466;29;20484;-66
2023/01/28 11:34:27;;;;;;;6.53;5.70;;;3.70;81.70;;;;;;4939120;29;20453;-67
2023/01/28 11:36:55;;;;;;;8.00;7.27;;;3.70;81.20;;;;;;4939948;29;20448;-67
2023/01/28 11:39:24;;;;;;;6.97;6.30;;;3.80;81.50;;;;;;4941442;29;20456;-68
2023/01/28 11:41:52;;;;;;;7.33;6.67;;;3.80;81.40;;;;;;4939631;29;20499;-68
2023/01/28 11:44:22;;;;;;;7.73;6.93;;;3.70;81.40;;;;;;4940564;29;20452;-68
2023/01/28 11:47:19;;;;;;;7.83;7.13;;;3.70;81.80;;;;;;4937927;29;20940;-68
2023/01/28 11:50:02;;;;;;;7.20;6.50;;;3.70;81.70;;;;;;4932445;29;20452;-67
2023/01/28 11:52:40;;;;;;;7.50;6.77;;;3.60;81.70;;;;;;4938008;29;20547;-66
2023/01/28 11:55:22;;;;;;;8.10;7.30;;;3.70;81.70;;;;;;4938689;29;20491;-66
2023/01/28 11:57:57;;;;;;;8.20;7.50;;;3.50;82.10;;;;;;4939482;29;20801;-68
2023/01/28 12:00:38;;;;;;;7.20;6.50;;;3.50;82.10;;;;;;4938969;29;20424;-68
2023/01/28 12:03:23;;;;;;;7.80;7.00;;;3.40;82.20;;;;;;4940076;29;20435;-68
2023/01/28 12:05:54;;;;;;;8.33;7.20;;;3.40;82.50;;;;;;4939785;29;20436;-67
2023/01/28 12:08:24;;;;;;;9.00;8.20;;;3.50;82.30;;;;;;4939577;29;20429;-69
2023/01/28 12:11:08;;;;;;;9.60;8.60;;;3.50;82.50;;;;;;4939868;29;20468;-68
2023/01/28 12:13:51;;;;;;;7.77;7.07;;;3.50;81.90;;;;;;4939979;29;20440;-68
2023/01/28 12:16:34;;;;;;;7.93;7.17;;;3.50;82.10;;;;;;4939852;29;20879;-68
2023/01/28 12:19:24;;;;;;;9.20;7.53;;;3.20;82.20;;;;;;4941484;29;20448;-68
2023/01/28 12:22:13;;;;;;;7.80;7.00;;;3.10;83.50;;;;;;4940077;29;20480;-68
2023/01/28 12:24:52;;;;;;;8.03;7.23;;;3.00;83.40;;;;;;4938636;29;20436;-68
2023/01/28 12:27:34;;;;;;;7.87;7.07;;;2.90;83.90;;;;;;4938573;29;20436;-68
2023/01/28 12:30:12;;;;;;;7.87;7.07;;;3.20;83.90;;;;;;4939207;29;20437;-68
2023/01/28 12:32:49;;;;;;;7.10;6.40;;;3.30;83.10;;;;;;4938407;29;20499;-68
2023/01/28 12:35:31;;;;;;;8.30;7.50;;;3.60;82.70;;;;;;4938420;29;20436;-68
2023/01/28 12:38:09;;;;;;;6.83;6.23;;;3.60;82.40;;;;;;4938955;29;20448;-68
2023/01/28 12:40:56;;;;;;;6.77;6.17;;;3.60;82.40;;;;;;4939105;29;20452;-68
2023/01/28 12:43:37;;;;;;;8.10;7.10;;;3.40;82.20;;;;;;4938083;29;20903;-73
2023/01/28 12:46:11;;;;;;;7.40;6.30;;;3.40;82.30;;;;;;4938652;29;20437;-67
2023/01/28 12:48:43;;;;;;;7.10;6.40;;;3.40;82.30;;;;;;4938450;29;20428;-68
2023/01/28 12:51:15;;;;;;;8.23;7.43;;;3.40;82.60;;;;;;4938780;29;20492;-67
2023/01/28 12:53:49;;;;;;;7.97;6.63;;;3.40;82.40;;;;;;4938208;29;20436;-67
2023/01/28 12:56:19;;;;;;;8.53;7.67;;;3.60;82.00;;;;;;4937230;29;20439;-66
2023/01/28 12:58:51;;;;;;;6.63;6.00;;;3.40;81.80;;;;;;4936789;29;21001;-67
2023/01/28 13:01:24;;;;;;;7.53;6.77;;;3.40;82.00;;;;;;4936226;29;20993;-67
2023/01/28 13:03:56;;;;;;;7.93;7.07;;;3.40;82.20;;;;;;4939925;29;20960;-66
2023/01/28 13:06:27;;;;;;;8.37;7.50;;;3.60;82.30;;;;;;4939385;29;20503;-66
2023/01/28 13:09:02;;;;;;;7.77;7.00;;;3.70;81.60;;;;;;4938127;29;20515;-66
2023/01/28 13:11:35;;;;;;;9.33;8.40;;;3.60;81.30;;;;;;4938725;29;20494;-66
2023/01/28 13:14:03;;;;;;;9.00;8.10;;;3.50;82.20;;;;;;4941695;29;21032;-66
2023/01/28 13:16:30;;;;;;;8.43;6.70;;;3.50;81.70;;;;;;4938078;29;20531;-66
2023/01/28 13:19:06;;;;;;;7.33;6.63;;;3.40;82.20;;;;;;4936919;29;20459;-67
2023/01/28 13:21:35;;;;;;;7.67;6.80;;;3.30;82.20;;;;;;4941576;29;20472;-67
2023/01/28 13:24:20;;;;;;;8.03;7.23;;;3.20;82.50;;;;;;4942921;29;20450;-67
2023/01/28 13:26:52;;;;;;;8.30;7.50;;;3.10;83.40;;;;;;4940807;29;20518;-66
2023/01/28 13:29:28;;;;;;;8.00;7.20;;;3.10;84.00;;;;;;4940843;29;20441;-67
2023/01/28 13:31:56;;;;;;;6.80;6.10;;;3.20;83.30;;;;;;4939784;29;21055;-67
2023/01/28 13:34:32;;;;;;;7.03;5.77;;;3.10;83.60;;;;;;4941838;29;20448;-66
2023/01/28 13:37:00;;;;;;;6.10;5.40;;;3.00;84.00;;;;;;4945222;29;20475;-67
2023/01/28 13:39:29;;;;;;;7.53;6.73;;;2.90;84.50;;;;;;4945094;29;20493;-66
2023/01/28 13:42:08;;;;;;;7.37;6.40;;;3.10;84.70;;;;;;4945474;29;20464;-66
2023/01/28 13:44:36;;;;;;;7.07;6.37;;;3.10;84.10;;;;;;4945510;29;20447;-66
2023/01/28 13:47:20;;;;;;;6.70;6.10;;;3.30;84.30;;;;;;4943508;29;20459;-67
2023/01/28 13:49:49;;;;;;;6.03;4.90;;;3.60;83.50;;;;;;4943744;29;20460;-67
2023/01/28 13:52:23;;;;;;;6.83;5.30;;;3.60;82.60;;;;;;4943691;29;20513;-66
2023/01/28 13:54:57;;;;;;;6.07;4.80;;;3.60;83.30;;;;;;4944965;29;20448;-67
2023/01/28 13:58:02;;;;;;;4.70;4.17;;;3.70;83.00;;;;;;4943128;29;20466;-66
2023/01/28 14:00:36;;;;;;;3.83;3.43;;;3.90;82.70;;;;;;4943229;29;20534;-67
2023/01/28 14:03:29;;;;;;;6.20;3.93;;;3.50;83.20;;;;;;4942816;29;20471;-66
2023/01/28 14:06:19;;;;;;;5.00;3.63;;;3.40;84.10;;;;;;4938623;29;20444;-67
2023/01/28 14:09:08;;;;;;;6.20;5.13;;;3.60;84.00;;;;;;4943349;29;20423;-67
2023/01/28 14:12:09;;;;;;;3.90;3.50;;;3.70;83.60;;;;;;4942671;29;20559;-66
2023/01/28 14:15:00;;;;;;;6.70;4.43;;;3.70;83.40;;;;;;4941483;29;20461;-65
2023/01/28 14:17:35;;;;;;;4.00;3.53;;;3.80;83.60;;;;;;4943339;29;20879;-65
2023/01/28 14:20:04;;;;;;;3.90;3.40;;;3.70;83.70;;;;;;4944725;29;20444;-65
2023/01/28 14:22:30;;;;;;;3.30;3.00;;;3.70;84.20;;;;;;4944004;29;20494;-66
2023/01/28 14:25:02;;;;;;;5.13;4.63;;;3.80;83.90;;;;;;4944601;29;20581;-67
2023/01/28 14:27:37;;;;;;;4.77;4.30;;;3.80;83.60;;;;;;4944904;29;20440;-66
2023/01/28 14:30:15;;;;;;;4.70;4.23;;;3.90;84.30;;;;;;4943159;29;20503;-66
2023/01/28 14:32:47;;;;;;;5.03;4.53;;;4.00;83.50;;;;;;4944024;29;20496;-67
2023/01/28 14:35:20;;;;;;;4.77;4.10;;;3.90;83.50;;;;;;4944744;29;20436;-67
2023/01/28 14:37:46;;;;;;;5.20;4.70;;;3.70;83.60;;;;;;4945451;29;20433;-66
2023/01/28 14:40:16;;;;;;;5.67;5.10;;;3.50;84.00;;;;;;4944416;29;20507;-66
2023/01/28 14:42:47;;;;;;;4.73;4.33;;;3.40;84.60;;;;;;4945454;29;20480;-67
2023/01/28 14:45:36;;;;;;;5.80;4.77;;;3.20;84.50;;;;;;4944452;29;20448;-65
2023/01/28 14:48:20;;;;;;;6.00;4.80;;;3.10;85.10;;;;;;4943634;29;20448;-66
2023/01/28 14:51:04;;;;;;;9.00;4.90;;;3.10;85.10;;;;;;4943261;29;20472;-66
2023/01/28 14:54:12;;;;;;;5.40;4.40;;;3.10;85.20;;;;;;4941732;29;20534;-67
2023/01/28 14:56:51;;;;;;;5.07;4.40;;;3.10;85.00;;;;;;4940766;29;20444;-67
2023/01/28 14:59:21;;;;;;;5.00;4.50;;;3.20;85.00;;;;;;4940294;29;20499;-67
2023/01/28 15:01:49;;;;;;;4.83;4.43;;;3.40;84.60;;;;;;4942491;29;20484;-68
2023/01/28 15:04:24;;;;;;;5.03;4.40;;;3.40;84.30;;;;;;4941006;29;20962;-67
2023/01/28 15:06:51;;;;;;;6.30;5.03;;;3.20;84.50;;;;;;4942361;29;20462;-68
2023/01/28 15:09:17;;;;;;;6.00;5.17;;;3.40;84.50;;;;;;4943282;29;20463;-68
2023/01/28 15:11:48;;;;;;;4.70;4.30;;;3.50;83.80;;;;;;4940641;29;20461;-68
2023/01/28 15:14:19;;;;;;;5.70;5.00;;;3.40;83.50;;;;;;4940228;29;20456;-68
2023/01/28 15:16:49;;;;;;;5.07;4.57;;;3.30;84.30;;;;;;4940556;29;20445;-68
2023/01/28 15:19:17;;;;;;;5.03;4.53;;;3.20;85.10;;;;;;4941030;29;20460;-68
2023/01/28 15:21:44;;;;;;;4.80;4.40;;;3.50;84.60;;;;;;4939333;29;20480;-67
2023/01/28 15:24:14;;;;;;;5.53;5.03;;;3.40;84.10;;;;;;4940448;29;20460;-68
2023/01/28 15:26:46;;;;;;;5.83;5.17;;;3.40;84.00;;;;;;4941346;29;20468;-68
2023/01/28 15:29:26;;;;;;;5.00;4.50;;;3.30;84.10;;;;;;4941531;29;20846;-69
2023/01/28 15:31:54;;;;;;;4.53;4.13;;;3.30;84.20;;;;;;4939257;29;20472;-69
2023/01/28 15:34:22;;;;;;;4.77;4.27;;;3.30;84.10;;;;;;4939749;29;20534;-69
2023/01/28 15:36:49;;;;;;;4.17;3.77;;;3.20;83.90;;;;;;4940297;29;20543;-69
2023/01/28 15:39:17;;;;;;;4.10;3.60;;;3.20;84.10;;;;;;4939753;29;20539;-68
2023/01/28 15:41:47;;;;;;;4.83;4.40;;;3.30;83.80;;;;;;4940711;29;20527;-68
2023/01/28 15:44:19;;;;;;;4.33;3.77;;;3.30;83.50;;;;;;4942822;29;20452;-69
2023/01/28 15:46:45;;;;;;;4.93;4.27;;;3.30;83.30;;;;;;4943368;29;20456;-68
2023/01/28 15:49:18;;;;;;;4.30;3.80;;;3.20;83.20;;;;;;4944051;29;20456;-68
2023/01/28 15:51:50;;;;;;;4.00;3.60;;;3.40;83.30;;;;;;4943089;29;20485;-68
2023/01/28 15:54:17;;;;;;;4.67;3.40;;;3.50;83.00;;;;;;4942860;29;20475;-69
2023/01/28 15:56:44;;;;;;;4.40;4.00;;;3.60;82.50;;;;;;4943165;29;20456;-68
2023/01/28 15:59:26;;;;;;;4.60;3.97;;;3.60;82.10;;;;;;4941015;29;20515;-69
2023/01/28 16:02:16;;;;;;;4.43;4.03;;;3.50;82.10;;;;;;4940905;29;20584;-69
2023/01/28 16:04:56;;;;;;;5.80;4.20;;;3.60;82.40;;;;;;4940766;29;20441;-69
2023/01/28 16:07:23;;;;;;;4.53;4.00;;;3.40;82.00;;;;;;4940307;29;20929;-68
2023/01/28 16:09:52;;;;;;;4.40;3.10;;;3.40;82.30;;;;;;4943417;29;20464;-67
2023/01/28 16:12:20;;;;;;;4.03;3.63;;;3.40;82.90;;;;;;4945917;29;20488;-68
2023/01/28 16:14:51;;;;;;;4.50;4.07;;;3.30;82.50;;;;;;4943777;29;20491;-68
2023/01/28 16:17:21;;;;;;;3.63;3.27;;;3.20;82.40;;;;;;4943301;29;20444;-69
2023/01/28 16:19:55;;;;;;;4.50;3.93;;;3.10;83.30;;;;;;4942243;29;20511;-68
2023/01/28 16:22:31;;;;;;;4.37;3.97;;;3.10;83.10;;;;;;4941704;29;20472;-68
2023/01/28 16:24:58;;;;;;;4.40;4.00;;;3.30;82.90;;;;;;4941842;29;20436;-68
2023/01/28 16:27:27;;;;;;;4.10;3.70;;;3.20;82.60;;;;;;4940661;29;20840;-69
2023/01/28 16:29:54;;;;;;;4.10;3.67;;;3.30;82.40;;;;;;4939650;29;20463;-68
2023/01/28 16:32:29;;;;;;;3.90;3.60;;;3.20;82.10;;;;;;4940323;29;20507;-68
2023/01/28 16:34:57;;;;;;;4.40;4.00;;;3.20;83.10;;;;;;4941297;29;20443;-68
2023/01/28 16:37:24;;;;;;;3.97;3.20;;;3.40;82.50;;;;;;4940960;29;20452;-68
2023/01/28 16:39:51;;;;;;;4.33;3.90;;;3.30;82.30;;;;;;4940780;29;20460;-67
2023/01/28 16:42:18;;;;;;;4.10;3.73;;;3.30;82.50;;;;;;4941469;29;20483;-69
2023/01/28 16:44:45;;;;;;;3.93;3.53;;;3.40;82.20;;;;;;4940646;29;20511;-68
2023/01/28 16:47:11;;;;;;;4.30;3.90;;;3.60;82.10;;;;;;4939173;29;20954;-69
2023/01/28 16:49:38;;;;;;;4.20;3.53;;;3.40;81.30;;;;;;4940243;29;20456;-68
2023/01/28 16:52:07;;;;;;;4.30;3.90;;;3.40;81.80;;;;;;4939802;29;20932;-69
2023/01/28 16:54:34;;;;;;;4.90;3.73;;;3.40;82.10;;;;;;4940163;29;20453;-69
2023/01/28 16:57:01;;;;;;;4.17;3.77;;;3.40;81.90;;;;;;4940839;29;20451;-68
2023/01/28 16:59:27;;;;;;;4.03;3.37;;;3.40;81.60;;;;;;4941523;29;20460;-68
2023/01/28 17:01:54;;;;;;;4.07;3.67;;;3.50;81.50;;;;;;4944533;29;20503;-68
2023/01/28 17:04:21;;;;;;;4.20;3.73;;;3.50;81.30;;;;;;4945170;29;20942;-69
2023/01/28 17:06:47;;;;;;;4.70;4.30;;;3.60;81.10;;;;;;4944402;29;20864;-67
2023/01/28 17:09:15;;;;;;;4.10;3.70;;;3.70;80.70;;;;;;4944207;29;20972;-68
2023/01/28 17:11:42;;;;;;;7.27;4.00;;;3.60;80.40;;;;;;4943912;29;20472;-68
2023/01/28 17:14:10;;;;;;;10.70;9.60;;;3.50;81.00;;;;;;4941820;29;20491;-68
2023/01/28 17:16:36;;;;;;;4.90;4.40;;;3.70;80.60;;;;;;4938110;29;20460;-71